createdAt,value
2018-09-09T00:01:53.276Z,15.70
2018-09-09T00:04:21.729Z,15.70
2018-09-09T00:06:50.246Z,15.60
2018-09-09T00:09:24.040Z,15.40
2018-09-09T00:11:52.545Z,15.30
2018-09-09T00:14:21.250Z,15.70
2018-09-09T00:16:49.929Z,15.80
2018-09-09T00:19:18.408Z,15.60
2018-09-09T00:21:46.879Z,15.70
2018-09-09T00:24:15.504Z,15.60
2018-09-09T00:26:44.036Z,15.50
2018-09-09T00:29:12.747Z,15.80
2018-09-09T00:31:41.489Z,15.50
2018-09-09T00:34:10.190Z,15.60
2018-09-09T00:36:38.683Z,15.60
2018-09-09T00:39:08.193Z,15.60
2018-09-09T00:41:36.697Z,15.60
2018-09-09T00:44:05.267Z,15.50
2018-09-09T00:46:34.150Z,15.30
2018-09-09T00:49:08.329Z,15.30
2018-09-09T00:51:42.331Z,15.50
2018-09-09T00:54:10.851Z,15.60
2018-09-09T00:56:39.441Z,15.40
2018-09-09T00:59:08.138Z,15.70
2018-09-09T01:01:37.104Z,15.90
2018-09-09T01:04:05.765Z,15.90
2018-09-09T01:06:34.252Z,15.60
2018-09-09T01:09:02.845Z,15.70
2018-09-09T01:11:31.343Z,15.80
2018-09-09T01:13:59.825Z,15.80
2018-09-09T01:16:28.511Z,15.90
2018-09-09T01:18:57.956Z,16.00
2018-09-09T01:21:26.551Z,15.80
2018-09-09T01:23:55.082Z,15.50
2018-09-09T01:26:24.254Z,15.40
2018-09-09T01:28:52.752Z,15.50
2018-09-09T01:31:21.420Z,15.30
2018-09-09T01:33:50.105Z,15.40
2018-09-09T01:36:18.834Z,15.30
2018-09-09T01:38:47.286Z,15.40
2018-09-09T01:41:15.780Z,15.30
2018-09-09T01:43:45.130Z,15.40
2018-09-09T01:46:13.904Z,15.30
2018-09-09T01:48:42.407Z,15.20
2018-09-09T01:51:11.164Z,15.10
2018-09-09T01:53:39.642Z,15.20
2018-09-09T01:56:08.185Z,15.10
2018-09-09T01:58:36.910Z,15.30
2018-09-09T02:01:05.474Z,15.30
2018-09-09T02:03:34.006Z,15.20
2018-09-09T02:06:02.709Z,15.20
2018-09-09T02:08:31.191Z,15.10
2018-09-09T02:11:00.993Z,15.10
2018-09-09T02:13:31.201Z,15.10
2018-09-09T02:16:00.007Z,15.20
2018-09-09T02:18:28.559Z,15.20
2018-09-09T02:20:57.017Z,15.20
2018-09-09T02:23:25.981Z,15.20
2018-09-09T02:25:54.611Z,15.20
2018-09-09T02:28:23.081Z,15.10
2018-09-09T02:30:51.612Z,15.10
2018-09-09T02:33:20.198Z,14.90
2018-09-09T02:35:48.744Z,15.00
2018-09-09T02:38:17.271Z,14.90
2018-09-09T02:40:45.724Z,14.90
2018-09-09T02:43:14.183Z,14.80
2018-09-09T02:45:42.701Z,14.80
2018-09-09T02:48:11.381Z,14.80
2018-09-09T02:50:39.922Z,14.80
2018-09-09T02:53:08.418Z,14.70
2018-09-09T02:55:46.261Z,14.90
2018-09-09T02:58:16.321Z,14.70
2018-09-09T03:00:45.132Z,14.70
2018-09-09T03:03:13.601Z,14.70
2018-09-09T03:05:42.491Z,14.80
2018-09-09T03:08:10.998Z,14.80
2018-09-09T03:10:40.131Z,15.10
2018-09-09T03:13:08.640Z,15.20
2018-09-09T03:15:37.138Z,15.10
2018-09-09T03:18:05.666Z,15.00
2018-09-09T03:20:34.168Z,14.70
2018-09-09T03:23:02.672Z,14.60
2018-09-09T03:25:31.192Z,14.80
2018-09-09T03:27:59.739Z,15.00
2018-09-09T03:30:28.378Z,14.80
2018-09-09T03:32:56.908Z,14.70
2018-09-09T03:35:25.351Z,14.70
2018-09-09T03:37:53.835Z,14.80
2018-09-09T03:40:22.388Z,14.60
2018-09-09T03:42:50.874Z,14.50
2018-09-09T03:45:19.382Z,14.40
2018-09-09T03:47:47.864Z,14.50
2018-09-09T03:50:16.396Z,14.50
2018-09-09T03:52:45.087Z,14.60
2018-09-09T03:55:13.567Z,14.60
2018-09-09T03:57:42.391Z,14.50
2018-09-09T04:00:10.868Z,14.50
2018-09-09T04:02:39.354Z,14.50
2018-09-09T04:05:07.902Z,14.70
2018-09-09T04:07:36.724Z,14.50
2018-09-09T04:10:05.553Z,14.40
2018-09-09T04:12:34.253Z,14.30
2018-09-09T04:15:03.120Z,14.30
2018-09-09T04:17:31.658Z,14.50
2018-09-09T04:20:00.134Z,14.60
2018-09-09T04:22:29.083Z,14.90
2018-09-09T04:24:57.608Z,14.70
2018-09-09T04:27:26.307Z,14.80
2018-09-09T04:29:55.238Z,14.60
2018-09-09T04:32:23.949Z,14.40
2018-09-09T04:34:52.659Z,14.50
2018-09-09T04:37:21.480Z,14.70
2018-09-09T04:39:49.982Z,14.90
2018-09-09T04:42:18.436Z,14.80
2018-09-09T04:44:47.045Z,14.60
2018-09-09T04:47:15.636Z,14.80
2018-09-09T04:49:44.118Z,14.80
2018-09-09T04:52:12.815Z,14.70
2018-09-09T04:54:41.496Z,14.80
2018-09-09T04:57:09.956Z,14.60
2018-09-09T04:59:38.576Z,14.60
2018-09-09T05:02:07.275Z,14.60
2018-09-09T05:04:35.806Z,14.60
2018-09-09T05:07:04.603Z,14.40
2018-09-09T05:09:33.106Z,14.40
2018-09-09T05:12:01.797Z,14.50
2018-09-09T05:14:30.353Z,14.50
2018-09-09T05:16:58.935Z,14.50
2018-09-09T05:19:27.601Z,14.80
2018-09-09T05:21:56.197Z,14.90
2018-09-09T05:24:24.710Z,15.00
2018-09-09T05:26:53.563Z,14.70
2018-09-09T05:29:22.142Z,14.90
2018-09-09T05:31:50.779Z,14.80
2018-09-09T05:34:19.539Z,14.90
2018-09-09T05:36:48.409Z,15.30
2018-09-09T05:39:17.072Z,14.80
2018-09-09T05:41:45.662Z,14.80
2018-09-09T05:44:14.307Z,15.20
2018-09-09T05:46:42.845Z,15.00
2018-09-09T05:49:11.402Z,15.00
2018-09-09T05:51:40.008Z,15.30
2018-09-09T05:54:08.541Z,14.90
2018-09-09T05:56:37.886Z,14.90
2018-09-09T05:59:06.423Z,14.80
2018-09-09T06:01:34.955Z,14.80
2018-09-09T06:04:04.129Z,14.90
2018-09-09T06:06:32.760Z,15.10
2018-09-09T06:09:01.906Z,14.80
2018-09-09T06:11:30.400Z,14.80
2018-09-09T06:13:58.906Z,14.80
2018-09-09T06:16:27.388Z,15.00
2018-09-09T06:18:55.887Z,15.00
2018-09-09T06:21:24.417Z,15.20
2018-09-09T06:23:52.975Z,15.40
2018-09-09T06:26:21.494Z,15.40
2018-09-09T06:28:50.001Z,15.40
2018-09-09T06:31:18.538Z,15.20
2018-09-09T06:33:47.170Z,15.30
2018-09-09T06:36:15.632Z,15.20
2018-09-09T06:38:44.105Z,15.40
2018-09-09T06:41:12.610Z,15.60
2018-09-09T06:43:41.170Z,15.30
2018-09-09T06:46:09.657Z,15.00
2018-09-09T06:48:38.280Z,15.00
2018-09-09T06:51:06.965Z,15.20
2018-09-09T06:53:35.882Z,15.40
2018-09-09T06:56:04.472Z,15.50
2018-09-09T06:58:33.139Z,15.30
2018-09-09T07:01:01.594Z,15.40
2018-09-09T07:03:30.634Z,15.30
2018-09-09T07:05:59.330Z,15.20
2018-09-09T07:08:28.053Z,15.30
2018-09-09T07:10:57.452Z,15.50
2018-09-09T07:13:25.938Z,15.70
2018-09-09T07:15:54.672Z,15.70
2018-09-09T07:18:23.477Z,15.70
2018-09-09T07:20:51.992Z,15.80
2018-09-09T07:23:20.513Z,16.00
2018-09-09T07:25:49.014Z,16.00
2018-09-09T07:28:17.575Z,16.20
2018-09-09T07:30:46.036Z,16.30
2018-09-09T07:33:14.845Z,16.50
2018-09-09T07:35:43.389Z,16.50
2018-09-09T07:38:11.959Z,16.30
2018-09-09T07:40:40.575Z,16.30
2018-09-09T07:43:09.093Z,16.20
2018-09-09T07:45:37.564Z,16.10
2018-09-09T07:48:06.343Z,16.20
2018-09-09T07:50:34.955Z,16.50
2018-09-09T07:53:03.468Z,16.60
2018-09-09T07:55:32.469Z,16.60
2018-09-09T07:58:00.964Z,16.60
2018-09-09T08:00:29.812Z,16.70
2018-09-09T08:02:58.870Z,16.70
2018-09-09T08:05:27.976Z,17.10
2018-09-09T08:07:56.460Z,17.20
2018-09-09T08:10:26.531Z,17.30
2018-09-09T08:12:55.603Z,17.50
2018-09-09T08:15:24.072Z,17.60
2018-09-09T08:17:52.658Z,17.40
2018-09-09T08:20:21.321Z,17.40
2018-09-09T08:22:50.283Z,17.60
2018-09-09T08:25:19.188Z,17.70
2018-09-09T08:27:47.694Z,17.70
2018-09-09T08:30:16.508Z,17.60
2018-09-09T08:32:45.320Z,17.70
2018-09-09T08:35:13.868Z,17.70
2018-09-09T08:37:42.596Z,17.70
2018-09-09T08:40:11.138Z,17.80
2018-09-09T08:42:39.643Z,17.80
2018-09-09T08:45:08.156Z,17.80
2018-09-09T08:47:36.867Z,17.70
2018-09-09T08:50:05.431Z,17.70
2018-09-09T08:52:33.940Z,17.80
2018-09-09T08:55:02.462Z,17.80
2018-09-09T08:57:31.083Z,18.00
2018-09-09T08:59:59.726Z,18.00
2018-09-09T09:02:28.262Z,18.20
2018-09-09T09:04:57.037Z,18.20
2018-09-09T09:07:25.644Z,18.30
2018-09-09T09:09:54.098Z,18.40
2018-09-09T09:12:22.632Z,18.50
2018-09-09T09:14:51.210Z,18.60
2018-09-09T09:17:19.707Z,18.50
2018-09-09T09:19:48.284Z,18.70
2018-09-09T09:22:16.915Z,18.80
2018-09-09T09:24:45.458Z,18.90
2018-09-09T09:27:14.002Z,19.00
2018-09-09T09:29:47.636Z,19.00
2018-09-09T09:32:20.273Z,19.00
2018-09-09T09:34:48.823Z,18.90
2018-09-09T09:37:17.622Z,18.80
2018-09-09T09:39:46.146Z,18.70
2018-09-09T09:42:14.626Z,18.80
2018-09-09T09:44:44.468Z,18.80
2018-09-09T09:47:13.380Z,18.90
2018-09-09T09:49:41.915Z,19.00
2018-09-09T09:52:10.875Z,19.00
2018-09-09T09:54:40.166Z,19.00
2018-09-09T09:57:09.186Z,19.20
2018-09-09T09:59:37.692Z,19.10
2018-09-09T10:02:06.577Z,19.30
2018-09-09T10:04:36.239Z,19.20
2018-09-09T10:07:04.830Z,19.20
2018-09-09T10:09:33.807Z,19.10
2018-09-09T10:12:02.313Z,19.10
2018-09-09T10:14:30.837Z,19.40
2018-09-09T10:16:59.652Z,19.40
2018-09-09T10:19:28.177Z,19.50
2018-09-09T10:21:57.132Z,19.50
2018-09-09T10:24:25.881Z,19.40
2018-09-09T10:26:56.395Z,19.40
2018-09-09T10:29:25.035Z,19.50
2018-09-09T10:31:53.659Z,19.40
2018-09-09T10:34:22.178Z,19.50
2018-09-09T10:36:50.656Z,19.60
2018-09-09T10:39:19.259Z,19.40
2018-09-09T10:41:47.770Z,19.40
2018-09-09T10:44:16.429Z,19.50
2018-09-09T10:46:45.002Z,19.60
2018-09-09T10:49:13.886Z,19.70
2018-09-09T10:51:42.381Z,19.70
2018-09-09T10:54:10.915Z,19.90
2018-09-09T10:56:39.409Z,20.10
2018-09-09T10:59:07.877Z,20.10
2018-09-09T11:01:37.020Z,20.30
2018-09-09T11:04:06.079Z,20.30
2018-09-09T11:06:34.670Z,20.40
2018-09-09T11:09:04.076Z,20.60
2018-09-09T11:11:33.266Z,20.60
2018-09-09T11:14:01.777Z,20.70
2018-09-09T11:16:30.309Z,20.70
2018-09-09T11:18:59.439Z,20.90
2018-09-09T11:21:31.036Z,20.90
2018-09-09T11:24:00.388Z,20.90
2018-09-09T11:26:29.095Z,21.00
2018-09-09T11:28:57.908Z,21.10
2018-09-09T11:31:27.136Z,21.10
2018-09-09T11:33:55.636Z,21.00
2018-09-09T11:36:24.156Z,21.20
2018-09-09T11:38:52.874Z,21.20
2018-09-09T11:41:21.420Z,21.20
2018-09-09T11:43:49.937Z,21.10
2018-09-09T11:46:19.852Z,21.00
2018-09-09T11:48:48.384Z,21.10
2018-09-09T11:51:17.354Z,21.00
2018-09-09T11:53:47.752Z,21.20
2018-09-09T11:56:16.788Z,21.10
2018-09-09T11:58:47.738Z,21.20
2018-09-09T12:01:17.635Z,21.40
2018-09-09T12:03:46.242Z,21.40
2018-09-09T12:06:15.430Z,21.50
2018-09-09T12:08:43.951Z,21.60
2018-09-09T12:11:13.412Z,21.60
2018-09-09T12:13:41.944Z,21.70
2018-09-09T12:16:10.511Z,21.70
2018-09-09T12:18:38.996Z,21.80
2018-09-09T12:21:07.477Z,21.80
2018-09-09T12:23:37.896Z,21.80
2018-09-09T12:26:08.383Z,21.90
2018-09-09T12:28:37.390Z,21.90
2018-09-09T12:31:07.544Z,22.20
2018-09-09T12:33:37.359Z,22.30
2018-09-09T12:36:06.839Z,22.50
2018-09-09T12:38:35.328Z,22.40
2018-09-09T12:41:04.433Z,22.30
2018-09-09T12:43:39.347Z,22.30
2018-09-09T12:59:06.837Z,22.30
2018-09-09T13:01:35.312Z,22.30
2018-09-09T13:04:03.961Z,22.30
2018-09-09T13:06:32.481Z,22.30
2018-09-09T13:09:00.957Z,22.30
2018-09-09T13:11:29.524Z,22.30
2018-09-09T13:13:57.994Z,22.60
2018-09-09T13:16:26.617Z,22.80
2018-09-09T13:18:55.572Z,22.90
2018-09-09T13:21:24.284Z,23.10
2018-09-09T13:23:52.856Z,23.00
2018-09-09T13:26:21.307Z,23.10
2018-09-09T13:28:49.914Z,23.10
2018-09-09T13:31:18.377Z,23.30
2018-09-09T13:33:46.880Z,23.40
2018-09-09T13:36:16.703Z,23.50
2018-09-09T13:38:45.384Z,23.60
2018-09-09T13:41:14.034Z,23.70
2018-09-09T13:43:42.654Z,23.70
2018-09-09T13:46:11.180Z,23.80
2018-09-09T13:48:39.767Z,23.80
2018-09-09T13:51:08.357Z,23.80
2018-09-09T13:53:37.152Z,23.70
2018-09-09T13:56:05.618Z,23.80
2018-09-09T13:58:34.988Z,23.70
2018-09-09T14:01:03.472Z,23.60
2018-09-09T14:03:32.195Z,23.70
2018-09-09T14:06:00.938Z,23.80
2018-09-09T14:08:29.510Z,23.90
2018-09-09T14:10:57.978Z,23.90
2018-09-09T14:13:26.699Z,23.80
2018-09-09T14:15:55.176Z,23.90
2018-09-09T14:18:23.769Z,23.80
2018-09-09T14:20:52.295Z,23.90
2018-09-09T14:23:20.888Z,24.00
2018-09-09T14:25:49.414Z,24.00
2018-09-09T14:28:19.035Z,24.20
2018-09-09T14:30:47.613Z,24.30
2018-09-09T14:33:16.083Z,24.10
2018-09-09T14:35:44.917Z,24.00
2018-09-09T14:38:13.601Z,23.90
2018-09-09T14:40:42.073Z,23.90
2018-09-09T14:43:10.559Z,23.70
2018-09-09T14:45:39.032Z,23.70
2018-09-09T14:48:07.575Z,23.60
2018-09-09T14:50:36.121Z,23.80
2018-09-09T14:53:04.646Z,23.80
2018-09-09T14:55:33.093Z,23.80
2018-09-09T14:58:01.579Z,23.80
2018-09-09T15:00:30.091Z,23.80
2018-09-09T15:02:58.919Z,23.80
2018-09-09T15:05:27.462Z,24.00
2018-09-09T15:07:55.953Z,24.10
2018-09-09T15:10:24.936Z,24.00
2018-09-09T15:12:53.860Z,24.00
2018-09-09T15:15:22.363Z,24.00
2018-09-09T15:17:51.040Z,24.00
2018-09-09T15:20:19.697Z,24.10
2018-09-09T15:22:48.225Z,23.90
2018-09-09T15:25:16.793Z,24.10
2018-09-09T15:27:45.288Z,24.10
2018-09-09T15:30:14.161Z,24.00
2018-09-09T15:32:42.890Z,23.80
2018-09-09T15:35:11.807Z,23.80
2018-09-09T15:37:40.461Z,23.70
2018-09-09T15:40:09.232Z,23.50
2018-09-09T15:42:38.862Z,23.30
2018-09-09T15:45:08.040Z,23.20
2018-09-09T15:47:38.329Z,23.20
2018-09-09T15:50:06.842Z,23.10
2018-09-09T15:52:35.393Z,23.20
2018-09-09T15:55:04.040Z,23.10
2018-09-09T15:57:32.536Z,23.10
2018-09-09T16:00:01.066Z,22.90
2018-09-09T16:02:32.353Z,22.80
2018-09-09T16:05:03.158Z,22.70
2018-09-09T16:07:31.628Z,22.70
2018-09-09T16:10:01.229Z,22.70
2018-09-09T16:12:29.822Z,22.60
2018-09-09T16:14:59.052Z,22.60
2018-09-09T16:17:28.052Z,22.50
2018-09-09T16:19:56.563Z,22.50
2018-09-09T16:22:25.105Z,22.70
2018-09-09T16:24:54.013Z,22.50
2018-09-09T16:27:22.546Z,22.60
2018-09-09T16:29:51.176Z,22.60
2018-09-09T16:32:19.719Z,22.40
2018-09-09T16:34:48.342Z,22.40
2018-09-09T16:37:16.967Z,22.30
2018-09-09T16:39:45.762Z,22.10
2018-09-09T16:42:14.189Z,22.00
2018-09-09T16:44:42.696Z,22.00
2018-09-09T16:47:11.445Z,21.90
2018-09-09T16:49:39.951Z,21.80
2018-09-09T16:52:08.489Z,21.60
2018-09-09T16:54:37.189Z,21.50
2018-09-09T16:57:07.614Z,21.40
2018-09-09T16:59:36.891Z,21.40
2018-09-09T17:02:05.448Z,21.30
2018-09-09T17:04:33.944Z,21.30
2018-09-09T17:07:02.570Z,21.20
2018-09-09T17:09:31.239Z,21.10
2018-09-09T17:12:00.411Z,21.10
2018-09-09T17:14:28.874Z,21.10
2018-09-09T17:16:57.395Z,21.00
2018-09-09T17:19:26.763Z,20.90
2018-09-09T17:21:55.280Z,20.80
2018-09-09T17:24:23.949Z,20.60
2018-09-09T17:26:52.690Z,20.60
2018-09-09T17:29:21.607Z,20.50
2018-09-09T17:31:50.879Z,20.40
2018-09-09T17:34:19.579Z,20.30
2018-09-09T17:36:48.308Z,20.20
2018-09-09T17:39:16.778Z,20.20
2018-09-09T17:41:45.280Z,20.10
2018-09-09T17:44:13.768Z,20.10
2018-09-09T17:46:42.418Z,20.00
2018-09-09T17:49:11.278Z,19.90
2018-09-09T17:51:39.832Z,19.90
2018-09-09T17:54:08.433Z,19.90
2018-09-09T17:56:37.490Z,19.80
2018-09-09T17:59:05.995Z,19.70
2018-09-09T18:01:34.604Z,19.60
2018-09-09T18:04:06.171Z,19.60
2018-09-09T18:06:35.375Z,19.50
2018-09-09T18:09:07.051Z,19.50
2018-09-09T18:11:36.762Z,19.50
2018-09-09T18:14:07.680Z,19.50
2018-09-09T18:16:36.370Z,19.40
2018-09-09T18:19:07.648Z,19.40
2018-09-09T18:21:36.268Z,19.40
2018-09-09T18:24:06.008Z,19.40
2018-09-09T18:26:34.627Z,19.30
2018-09-09T18:29:03.149Z,19.30
2018-09-09T18:31:31.705Z,19.30
2018-09-09T18:34:00.242Z,19.30
2018-09-09T18:36:28.957Z,19.20
2018-09-09T18:38:57.553Z,19.20
2018-09-09T18:41:26.148Z,19.20
2018-09-09T18:43:54.915Z,19.20
2018-09-09T18:46:23.498Z,19.20
2018-09-09T18:48:52.430Z,19.20
2018-09-09T18:51:21.275Z,19.10
2018-09-09T18:53:50.208Z,19.10
2018-09-09T18:56:18.817Z,19.00
2018-09-09T18:58:47.295Z,19.00
2018-09-09T19:01:15.934Z,19.00
2018-09-09T19:03:44.447Z,19.00
2018-09-09T19:06:13.034Z,18.90
2018-09-09T19:08:41.454Z,18.90
2018-09-09T19:11:10.019Z,18.80
2018-09-09T19:13:38.831Z,18.80
2018-09-09T19:16:07.354Z,18.90
2018-09-09T19:18:36.260Z,18.90
2018-09-09T19:21:04.871Z,18.90
2018-09-09T19:23:33.341Z,18.90
2018-09-09T19:26:02.075Z,18.80
2018-09-09T19:28:30.782Z,18.70
2018-09-09T19:30:59.268Z,18.80
2018-09-09T19:33:27.808Z,18.70
2018-09-09T19:35:56.816Z,18.70
2018-09-09T19:38:25.295Z,18.60
2018-09-09T19:40:53.844Z,18.50
2018-09-09T19:43:22.321Z,18.40
2018-09-09T19:45:50.863Z,18.40
2018-09-09T19:48:19.528Z,18.30
2018-09-09T19:50:48.142Z,18.40
2018-09-09T19:53:16.884Z,18.40
2018-09-09T19:55:45.382Z,18.40
2018-09-09T19:58:14.362Z,18.30
2018-09-09T20:00:43.029Z,18.30
2018-09-09T20:03:11.727Z,18.30
2018-09-09T20:05:40.240Z,18.20
2018-09-09T20:08:08.820Z,18.20
2018-09-09T20:10:37.453Z,18.30
2018-09-09T20:13:05.949Z,18.10
2018-09-09T20:15:34.704Z,18.00
2018-09-09T20:18:03.228Z,18.00
2018-09-09T20:20:31.716Z,18.20
2018-09-09T20:23:00.914Z,18.00
2018-09-09T20:25:29.446Z,18.00
2018-09-09T20:27:58.050Z,18.10
2018-09-09T20:30:27.642Z,18.20
2018-09-09T20:32:56.167Z,18.20
2018-09-09T20:35:24.969Z,18.20
2018-09-09T20:37:53.673Z,18.40
2018-09-09T20:40:22.533Z,18.40
2018-09-09T20:42:51.048Z,18.30
2018-09-09T20:45:19.656Z,18.20
2018-09-09T20:47:48.370Z,18.10
2018-09-09T20:50:16.886Z,18.10
2018-09-09T20:52:45.439Z,18.00
2018-09-09T20:55:13.971Z,18.00
2018-09-09T20:57:42.518Z,18.20
2018-09-09T21:00:11.235Z,18.10
2018-09-09T21:02:39.881Z,18.10
2018-09-09T21:05:09.430Z,18.10
2018-09-09T21:07:38.153Z,18.00
2018-09-09T21:10:07.548Z,18.10
2018-09-09T21:12:36.064Z,18.10
2018-09-09T21:15:06.252Z,18.20
2018-09-09T21:17:35.660Z,18.10
2018-09-09T21:20:04.888Z,17.90
2018-09-09T21:22:33.670Z,17.90
2018-09-09T21:25:09.800Z,17.80
2018-09-09T21:27:38.785Z,17.80
2018-09-09T21:30:07.311Z,17.80
2018-09-09T21:32:35.972Z,17.90
2018-09-09T21:35:04.522Z,18.00
2018-09-09T21:37:33.092Z,18.10
2018-09-09T21:40:01.815Z,18.00
2018-09-09T21:42:30.798Z,18.00
2018-09-09T21:44:59.480Z,17.90
2018-09-09T21:47:28.172Z,17.80
2018-09-09T21:49:56.917Z,17.80
2018-09-09T21:52:25.452Z,17.80
2018-09-09T21:54:54.193Z,17.90
2018-09-09T21:57:22.730Z,17.80
2018-09-09T21:59:51.260Z,17.80
2018-09-09T22:02:19.973Z,17.70
2018-09-09T22:04:48.648Z,17.70
2018-09-09T22:07:17.351Z,17.80
2018-09-09T22:09:46.094Z,17.70
2018-09-09T22:12:14.559Z,17.70
2018-09-09T22:14:43.252Z,18.00
2018-09-09T22:17:12.077Z,17.90
2018-09-09T22:19:40.789Z,17.70
2018-09-09T22:22:09.255Z,17.50
2018-09-09T22:24:37.807Z,17.40
2018-09-09T22:27:06.295Z,17.40
2018-09-09T22:29:34.843Z,17.30
2018-09-09T22:32:03.298Z,17.20
2018-09-09T22:34:31.762Z,17.30
2018-09-09T22:37:00.227Z,17.20
2018-09-09T22:39:28.685Z,17.10
2018-09-09T22:41:57.288Z,17.20
2018-09-09T22:44:25.894Z,17.00
2018-09-09T22:46:54.436Z,17.00
2018-09-09T22:49:22.963Z,17.00
2018-09-09T22:51:52.092Z,16.90
2018-09-09T22:54:20.608Z,16.90
2018-09-09T22:56:49.152Z,16.90
2018-09-09T22:59:17.908Z,16.90
2018-09-09T23:01:46.453Z,17.00
2018-09-09T23:04:14.973Z,16.90
2018-09-09T23:06:43.607Z,16.80
2018-09-09T23:09:13.226Z,16.80
2018-09-09T23:11:41.792Z,16.70
2018-09-09T23:14:10.331Z,16.80
2018-09-09T23:16:38.946Z,16.70
2018-09-09T23:19:07.410Z,16.80
2018-09-09T23:21:35.940Z,16.80
2018-09-09T23:24:04.708Z,16.80
2018-09-09T23:26:33.186Z,17.10
2018-09-09T23:29:01.704Z,17.10
2018-09-09T23:31:30.419Z,17.00
2018-09-09T23:33:58.886Z,16.80
2018-09-09T23:36:27.520Z,16.60
2018-09-09T23:38:55.979Z,16.60
2018-09-09T23:41:24.616Z,16.50
2018-09-09T23:43:53.069Z,16.50
2018-09-09T23:46:21.557Z,16.50
2018-09-09T23:48:50.061Z,16.50
2018-09-09T23:51:18.564Z,16.50
2018-09-09T23:53:47.072Z,16.50
2018-09-09T23:56:15.711Z,16.50
2018-09-09T23:58:44.209Z,16.40
